createdAt,value
2022-10-18T00:00:27.381Z,23.10
2022-10-18T00:02:56.665Z,22.37
2022-10-18T00:05:24.562Z,22.10
2022-10-18T00:07:52.464Z,19.47
2022-10-18T00:10:20.629Z,19.97
2022-10-18T00:12:48.551Z,21.40
2022-10-18T00:15:16.443Z,21.43
2022-10-18T00:17:44.472Z,19.20
2022-10-18T00:20:14.041Z,21.80
2022-10-18T00:22:42.402Z,21.27
2022-10-18T00:25:10.857Z,21.10
2022-10-18T00:27:38.808Z,18.97
2022-10-18T00:30:07.763Z,20.00
2022-10-18T00:32:37.371Z,21.33
2022-10-18T00:35:06.446Z,21.17
2022-10-18T00:37:36.161Z,20.67
2022-10-18T00:40:04.667Z,20.00
2022-10-18T00:42:35.744Z,20.43
2022-10-18T00:45:23.109Z,16.70
2022-10-18T00:47:53.582Z,17.03
2022-10-18T00:50:22.580Z,18.97
2022-10-18T00:52:53.839Z,19.17
2022-10-18T00:55:22.209Z,17.20
2022-10-18T00:57:50.566Z,17.33
2022-10-18T01:00:18.993Z,18.43
2022-10-18T01:02:47.862Z,17.90
2022-10-18T01:05:18.659Z,18.90
2022-10-18T01:08:01.161Z,18.13
2022-10-18T01:10:32.365Z,19.63
2022-10-18T01:13:11.192Z,17.73
2022-10-18T01:15:44.595Z,17.53
2022-10-18T01:18:17.567Z,18.00
2022-10-18T01:21:18.655Z,18.40
2022-10-18T01:24:24.797Z,16.30
2022-10-18T01:27:27.339Z,19.10
2022-10-18T01:30:09.311Z,16.67
2022-10-18T01:32:41.892Z,17.90
2022-10-18T01:35:13.106Z,18.07
2022-10-18T01:37:41.371Z,18.90
2022-10-18T01:40:10.592Z,17.97
2022-10-18T01:42:38.508Z,18.37
2022-10-18T01:45:08.695Z,17.27
2022-10-18T01:47:38.816Z,18.57
2022-10-18T01:50:08.174Z,17.50
2022-10-18T01:52:36.101Z,18.87
2022-10-18T01:55:04.959Z,19.53
2022-10-18T01:57:38.048Z,19.10
2022-10-18T02:00:08.140Z,18.83
2022-10-18T02:02:43.978Z,17.97
2022-10-18T02:05:18.206Z,18.30
2022-10-18T02:08:00.162Z,18.60
2022-10-18T02:10:42.885Z,17.70
2022-10-18T02:13:12.686Z,19.40
2022-10-18T02:15:43.024Z,18.63
2022-10-18T02:18:15.362Z,20.87
2022-10-18T02:20:43.440Z,19.63
2022-10-18T02:23:12.060Z,19.17
2022-10-18T02:25:40.287Z,18.50
2022-10-18T02:28:08.305Z,19.73
2022-10-18T02:30:39.175Z,17.20
2022-10-18T02:33:14.290Z,18.70
2022-10-18T02:35:46.648Z,18.10
2022-10-18T02:38:16.695Z,18.00
2022-10-18T02:40:44.737Z,18.80
2022-10-18T02:43:12.686Z,17.73
2022-10-18T02:45:40.584Z,18.77
2022-10-18T02:48:08.849Z,19.43
2022-10-18T02:50:38.106Z,19.70
2022-10-18T02:53:06.005Z,19.17
2022-10-18T02:55:33.896Z,18.90
2022-10-18T02:58:01.873Z,18.00
2022-10-18T03:00:29.972Z,19.87
2022-10-18T03:02:57.864Z,19.23
2022-10-18T03:05:25.760Z,18.23
2022-10-18T03:07:57.745Z,20.07
2022-10-18T03:10:25.754Z,18.20
2022-10-18T03:12:53.686Z,19.37
2022-10-18T03:15:21.589Z,18.90
2022-10-18T03:17:49.460Z,19.50
2022-10-18T03:20:17.375Z,16.43
2022-10-18T03:22:45.312Z,18.03
2022-10-18T03:25:14.634Z,17.50
2022-10-18T03:27:42.547Z,19.23
2022-10-18T03:30:11.979Z,18.07
2022-10-18T03:32:39.898Z,18.43
2022-10-18T03:35:09.214Z,18.47
2022-10-18T03:37:37.508Z,16.40
2022-10-18T03:40:06.456Z,18.20
2022-10-18T03:42:35.714Z,16.83
2022-10-18T03:45:03.688Z,16.63
2022-10-18T03:47:31.657Z,17.50
2022-10-18T03:49:59.561Z,16.17
2022-10-18T03:52:27.466Z,16.47
2022-10-18T03:54:55.346Z,15.83
2022-10-18T03:57:25.847Z,15.77
2022-10-18T03:59:55.140Z,15.90
2022-10-18T04:02:23.149Z,15.10
2022-10-18T04:04:51.055Z,15.80
2022-10-18T04:07:21.266Z,15.47
2022-10-18T04:09:49.235Z,16.30
2022-10-18T04:12:17.170Z,15.47
2022-10-18T04:14:45.086Z,15.07
2022-10-18T04:17:14.535Z,13.93
2022-10-18T04:19:44.264Z,15.50
2022-10-18T04:22:12.692Z,16.17
2022-10-18T04:24:40.645Z,15.53
2022-10-18T04:27:08.852Z,17.03
2022-10-18T04:29:36.742Z,16.33
2022-10-18T04:32:04.679Z,16.90
2022-10-18T04:34:34.660Z,16.60
2022-10-18T04:37:02.784Z,16.40
2022-10-18T04:39:30.690Z,14.03
2022-10-18T04:41:58.616Z,15.97
2022-10-18T04:44:26.563Z,16.63
2022-10-18T04:46:54.506Z,15.93
2022-10-18T04:49:22.421Z,19.30
2022-10-18T04:51:54.905Z,17.57
2022-10-18T04:54:25.159Z,17.30
2022-10-18T04:56:55.793Z,18.13
2022-10-18T04:59:23.713Z,19.37
2022-10-18T05:01:51.928Z,19.00
2022-10-18T05:04:19.959Z,20.63
2022-10-18T05:06:48.384Z,21.00
2022-10-18T05:09:17.669Z,18.10
2022-10-18T05:11:45.598Z,20.80
2022-10-18T05:14:20.444Z,18.97
2022-10-18T05:16:48.338Z,17.87
2022-10-18T05:19:16.420Z,18.80
2022-10-18T05:21:44.363Z,18.27
2022-10-18T05:24:12.789Z,18.10
2022-10-18T05:26:42.241Z,16.97
2022-10-18T05:29:10.256Z,15.27
2022-10-18T05:31:38.730Z,15.00
2022-10-18T05:34:06.665Z,15.07
2022-10-18T05:36:34.609Z,14.97
2022-10-18T05:39:05.081Z,14.77
2022-10-18T05:41:33.685Z,15.50
2022-10-18T05:44:06.913Z,14.47
2022-10-18T05:46:34.903Z,14.17
2022-10-18T05:49:02.863Z,14.13
2022-10-18T05:51:33.073Z,13.20
2022-10-18T05:54:01.009Z,14.00
2022-10-18T05:56:28.938Z,14.10
2022-10-18T05:58:56.950Z,15.10
2022-10-18T06:01:26.383Z,14.53
2022-10-18T06:03:54.542Z,16.07
2022-10-18T06:06:24.981Z,16.20
2022-10-18T06:08:52.886Z,18.33
2022-10-18T06:11:21.810Z,20.50
2022-10-18T06:13:51.231Z,19.77
2022-10-18T06:16:20.734Z,17.93
2022-10-18T06:18:50.530Z,16.80
2022-10-18T06:21:19.085Z,16.30
2022-10-18T06:23:49.692Z,17.50
2022-10-18T06:26:17.645Z,18.80
2022-10-18T06:28:45.720Z,17.87
2022-10-18T06:31:14.410Z,23.30
2022-10-18T06:33:42.559Z,22.33
2022-10-18T06:36:14.013Z,20.40
2022-10-18T06:38:42.142Z,17.40
2022-10-18T06:41:10.260Z,15.93
2022-10-18T06:43:38.213Z,15.87
2022-10-18T06:46:07.725Z,13.17
2022-10-18T06:48:36.105Z,15.07
2022-10-18T06:51:05.338Z,15.27
2022-10-18T06:53:43.675Z,14.87
2022-10-18T06:56:16.547Z,14.00
2022-10-18T06:58:44.452Z,13.27
2022-10-18T07:01:15.707Z,13.77
2022-10-18T07:03:43.847Z,14.50
2022-10-18T07:06:13.739Z,12.80
2022-10-18T07:08:43.308Z,13.50
2022-10-18T07:11:16.250Z,13.23
2022-10-18T07:13:44.198Z,12.30
2022-10-18T07:16:17.299Z,12.77
2022-10-18T07:18:49.387Z,13.83
2022-10-18T07:21:18.923Z,13.50
2022-10-18T07:23:48.808Z,13.83
2022-10-18T07:26:19.414Z,11.80
2022-10-18T07:28:50.770Z,12.63
2022-10-18T07:31:19.086Z,12.60
2022-10-18T07:33:47.028Z,13.90
2022-10-18T07:36:15.037Z,11.80
2022-10-18T07:38:43.064Z,12.50
2022-10-18T07:41:13.848Z,13.70
2022-10-18T07:43:44.455Z,14.07
2022-10-18T07:46:12.757Z,11.50
2022-10-18T07:48:40.666Z,11.43
2022-10-18T07:51:11.257Z,11.50
2022-10-18T07:53:40.679Z,11.50
2022-10-18T07:56:12.009Z,11.83
2022-10-18T07:58:41.283Z,10.33
2022-10-18T08:01:09.762Z,13.70
2022-10-18T08:03:38.751Z,21.33
2022-10-18T08:06:09.232Z,17.13
2022-10-18T08:08:38.207Z,20.60
2022-10-18T08:11:07.790Z,23.07
2022-10-18T08:13:35.722Z,14.70
2022-10-18T08:16:07.086Z,14.30
2022-10-18T08:18:35.323Z,13.07
2022-10-18T08:21:03.433Z,14.70
2022-10-18T08:23:31.367Z,16.07
2022-10-18T08:26:02.141Z,13.47
2022-10-18T08:28:30.755Z,11.33
2022-10-18T08:30:58.806Z,11.80
2022-10-18T08:33:28.068Z,11.03
2022-10-18T08:35:56.561Z,12.47
2022-10-18T08:38:24.592Z,12.53
2022-10-18T08:40:52.806Z,12.40
2022-10-18T08:43:28.360Z,11.63
2022-10-18T08:45:56.713Z,11.07
2022-10-18T08:48:30.201Z,10.63
2022-10-18T08:50:58.643Z,9.57
2022-10-18T08:53:30.200Z,10.07
2022-10-18T08:56:03.641Z,11.60
2022-10-18T08:58:33.523Z,9.47
2022-10-18T09:01:09.142Z,10.33
2022-10-18T09:03:54.457Z,9.27
2022-10-18T09:06:27.397Z,10.00
2022-10-18T09:09:08.228Z,8.80
2022-10-18T09:11:48.133Z,10.03
2022-10-18T09:14:36.429Z,9.77
2022-10-18T09:17:13.668Z,10.70
2022-10-18T09:22:43.118Z,10.87
2022-10-18T09:25:17.051Z,10.90
2022-10-18T09:27:53.119Z,10.67
2022-10-18T09:30:31.145Z,10.23
2022-10-18T09:33:05.946Z,9.73
2022-10-18T09:35:40.105Z,10.80
2022-10-18T09:38:12.738Z,11.67
2022-10-18T09:40:48.325Z,11.63
2022-10-18T09:43:19.157Z,11.80
2022-10-18T09:45:48.433Z,11.90
2022-10-18T09:48:20.003Z,12.90
2022-10-18T09:50:52.568Z,11.57
2022-10-18T09:53:24.916Z,13.00
2022-10-18T09:55:58.314Z,12.70
2022-10-18T09:58:28.261Z,11.37
2022-10-18T10:00:56.840Z,13.07
2022-10-18T10:03:24.720Z,12.20
2022-10-18T10:06:04.356Z,12.10
2022-10-18T10:08:35.882Z,12.27
2022-10-18T10:11:06.600Z,12.87
2022-10-18T10:13:34.614Z,12.50
2022-10-18T10:16:03.783Z,12.80
2022-10-18T10:18:32.980Z,13.33
2022-10-18T10:21:03.955Z,13.50
2022-10-18T10:23:34.565Z,14.20
2022-10-18T10:26:03.902Z,15.40
2022-10-18T10:28:34.189Z,16.07
2022-10-18T10:31:22.565Z,16.67
2022-10-18T10:34:00.181Z,16.27
2022-10-18T10:36:30.451Z,15.70
2022-10-18T10:39:06.448Z,16.23
2022-10-18T10:41:34.958Z,18.70
2022-10-18T10:44:03.953Z,18.17
2022-10-18T10:46:36.554Z,18.20
2022-10-18T10:49:34.950Z,19.23
2022-10-18T10:52:08.516Z,18.60
2022-10-18T10:54:51.178Z,18.50
2022-10-18T10:57:23.618Z,19.73
2022-10-18T10:59:53.431Z,18.90
2022-10-18T11:02:23.225Z,20.03
2022-10-18T11:04:52.425Z,20.80
2022-10-18T11:07:25.309Z,20.90
2022-10-18T11:09:59.320Z,20.27
2022-10-18T11:12:34.585Z,21.57
2022-10-18T11:15:11.990Z,21.80
2022-10-18T11:17:44.172Z,22.57
2022-10-18T11:20:20.941Z,20.80
2022-10-18T11:22:59.812Z,21.83
2022-10-18T11:25:35.866Z,22.23
2022-10-18T11:28:09.585Z,22.63
2022-10-18T11:30:44.987Z,22.03
2022-10-18T11:33:33.733Z,20.10
2022-10-18T11:36:16.504Z,20.80
2022-10-18T11:38:50.601Z,20.50
2022-10-18T11:41:31.390Z,20.00
2022-10-18T11:44:02.989Z,19.47
2022-10-18T11:46:45.557Z,20.03
2022-10-18T11:49:22.520Z,20.60
2022-10-18T11:52:08.528Z,18.67
2022-10-18T11:54:53.556Z,20.53
2022-10-18T11:57:41.969Z,20.03
2022-10-18T12:00:19.890Z,19.97
2022-10-18T12:03:04.884Z,21.77
2022-10-18T12:05:34.105Z,20.40
2022-10-18T12:08:05.440Z,21.50
2022-10-18T12:10:52.591Z,19.57
2022-10-18T12:13:35.082Z,20.37
2022-10-18T12:16:04.534Z,21.03
2022-10-18T12:18:33.145Z,21.50
2022-10-18T12:21:01.890Z,23.40
2022-10-18T12:23:36.926Z,22.80
2022-10-18T12:26:09.073Z,24.53
2022-10-18T12:28:48.213Z,24.10
2022-10-18T12:31:21.930Z,24.97
2022-10-18T12:33:52.296Z,25.10
2022-10-18T12:36:45.594Z,26.03
2022-10-18T12:39:29.147Z,27.57
2022-10-18T12:42:19.260Z,27.50
2022-10-18T12:44:47.712Z,28.87
2022-10-18T12:47:23.395Z,28.60
2022-10-18T12:49:57.810Z,29.57
2022-10-18T12:52:28.135Z,30.10
2022-10-18T12:55:06.551Z,29.27
2022-10-18T12:58:05.589Z,26.60
2022-10-18T13:00:52.452Z,27.77
2022-10-18T13:03:44.201Z,30.13
2022-10-18T13:06:12.107Z,30.80
2022-10-18T13:08:42.797Z,29.40
2022-10-18T13:11:33.250Z,29.50
2022-10-18T13:14:18.285Z,29.00
2022-10-18T13:16:50.043Z,29.40
2022-10-18T13:19:23.273Z,28.13
2022-10-18T13:21:57.900Z,27.87
2022-10-18T13:24:32.164Z,29.57
2022-10-18T13:27:36.225Z,28.33
2022-10-18T13:30:31.497Z,28.57
2022-10-18T13:33:08.488Z,27.60
2022-10-18T13:36:00.299Z,28.17
2022-10-18T13:38:48.535Z,26.40
2022-10-18T13:41:19.287Z,27.77
2022-10-18T13:43:59.260Z,25.53
2022-10-18T13:47:18.456Z,26.00
2022-10-18T13:53:20.792Z,25.10
2022-10-18T13:55:57.658Z,25.40
2022-10-18T13:58:31.993Z,23.70
2022-10-18T14:01:11.483Z,24.33
2022-10-18T14:03:57.499Z,21.47
2022-10-18T14:06:29.261Z,24.63
2022-10-18T14:09:06.287Z,25.97
2022-10-18T14:11:46.252Z,22.30
2022-10-18T14:14:16.681Z,22.40
2022-10-18T14:16:49.936Z,27.83
2022-10-18T14:19:30.322Z,22.30
2022-10-18T14:22:03.474Z,20.30
2022-10-18T14:24:32.096Z,20.77
2022-10-18T14:27:14.042Z,19.60
2022-10-18T14:29:42.150Z,20.80
2022-10-18T14:32:30.183Z,19.40
2022-10-18T14:35:31.738Z,20.33
2022-10-18T14:37:48.312Z,18.37
2022-10-18T14:40:31.166Z,20.03
2022-10-18T14:43:03.842Z,19.30
2022-10-18T14:45:31.889Z,17.80
2022-10-18T14:48:15.754Z,19.20
2022-10-18T14:50:47.259Z,19.20
2022-10-18T14:53:18.132Z,18.30
2022-10-18T14:55:54.272Z,17.40
2022-10-18T14:58:22.333Z,17.40
2022-10-18T15:00:50.297Z,17.23
2022-10-18T15:03:18.916Z,16.73
2022-10-18T15:05:56.357Z,17.87
2022-10-18T15:08:24.860Z,18.30
2022-10-18T15:10:53.142Z,17.80
2022-10-18T15:13:21.211Z,15.27
2022-10-18T15:15:49.293Z,16.77
2022-10-18T15:18:22.211Z,16.57
2022-10-18T15:21:09.783Z,16.50
2022-10-18T15:23:37.710Z,17.73
2022-10-18T15:26:07.293Z,16.67
2022-10-18T15:28:37.155Z,16.90
2022-10-18T15:31:06.966Z,17.27
2022-10-18T15:33:35.031Z,18.03
2022-10-18T15:36:11.755Z,15.60
2022-10-18T15:38:40.032Z,17.20
2022-10-18T15:41:38.982Z,15.33
2022-10-18T15:44:20.841Z,18.13
2022-10-18T15:46:49.149Z,15.77
2022-10-18T15:49:50.919Z,16.40
2022-10-18T15:52:41.925Z,15.73
2022-10-18T15:55:46.754Z,15.17
2022-10-18T15:58:19.219Z,16.40
2022-10-18T16:00:48.156Z,15.50
2022-10-18T16:03:16.682Z,15.20
2022-10-18T16:05:45.346Z,15.40
2022-10-18T16:08:26.594Z,18.03
2022-10-18T16:10:54.467Z,20.63
2022-10-18T16:13:22.331Z,19.50
2022-10-18T16:15:50.239Z,18.07
2022-10-18T16:18:20.240Z,16.23
2022-10-18T16:20:49.114Z,17.27
2022-10-18T16:23:18.970Z,17.73
2022-10-18T16:25:48.704Z,16.83
2022-10-18T16:28:19.093Z,18.07
2022-10-18T16:30:50.321Z,17.30
2022-10-18T16:33:21.411Z,17.17
2022-10-18T16:35:50.071Z,16.03
2022-10-18T16:38:25.651Z,14.67
2022-10-18T16:40:55.340Z,17.00
2022-10-18T16:43:23.791Z,17.40
2022-10-18T16:45:53.204Z,16.70
2022-10-18T16:48:22.868Z,17.90
2022-10-18T16:50:51.012Z,21.67
2022-10-18T16:53:23.159Z,18.10
2022-10-18T16:55:54.631Z,18.00
2022-10-18T17:00:57.659Z,18.90
2022-10-18T17:03:26.215Z,18.20
2022-10-18T17:05:54.456Z,19.80
2022-10-18T17:08:24.665Z,17.33
2022-10-18T17:10:54.441Z,20.90
2022-10-18T17:13:24.762Z,18.87
2022-10-18T17:15:53.427Z,19.43
2022-10-18T17:18:26.358Z,19.73
2022-10-18T17:20:54.473Z,19.67
2022-10-18T17:23:22.456Z,17.57
2022-10-18T17:26:05.026Z,18.17
2022-10-18T17:28:38.850Z,20.00
2022-10-18T17:31:07.793Z,17.57
2022-10-18T17:33:35.893Z,19.53
2022-10-18T17:36:04.366Z,20.80
2022-10-18T17:38:32.266Z,20.13
2022-10-18T17:41:00.204Z,18.30
2022-10-18T17:43:28.880Z,18.93
2022-10-18T17:45:58.278Z,18.70
2022-10-18T17:48:28.244Z,19.10
2022-10-18T17:50:56.384Z,16.70
2022-10-18T17:53:28.464Z,18.03
2022-10-18T17:56:02.357Z,16.90
2022-10-18T17:58:31.010Z,14.97
2022-10-18T18:01:09.755Z,14.13
2022-10-18T18:03:37.749Z,12.80
2022-10-18T18:06:16.922Z,15.53
2022-10-18T18:08:44.975Z,15.47
2022-10-18T18:11:12.949Z,14.90
2022-10-18T18:13:40.868Z,14.60
2022-10-18T18:16:15.416Z,15.33
2022-10-18T18:18:45.265Z,15.50
2022-10-18T18:21:13.873Z,15.80
2022-10-18T18:23:41.772Z,14.17
2022-10-18T18:26:10.110Z,15.37
2022-10-18T18:28:38.250Z,15.53
2022-10-18T18:31:07.599Z,17.20
2022-10-18T18:33:37.311Z,15.90
2022-10-18T18:36:06.802Z,16.97
2022-10-18T18:38:36.170Z,18.07
2022-10-18T18:41:08.464Z,16.47
2022-10-18T18:43:36.962Z,15.60
2022-10-18T18:46:05.449Z,16.30
2022-10-18T18:48:34.528Z,18.33
2022-10-18T18:51:04.817Z,20.00
2022-10-18T18:53:33.221Z,17.33
2022-10-18T18:56:06.138Z,19.50
2022-10-18T18:58:38.496Z,17.53
2022-10-18T19:01:08.281Z,15.93
2022-10-18T19:03:36.991Z,15.60
2022-10-18T19:06:08.376Z,17.07
2022-10-18T19:08:40.297Z,13.97
2022-10-18T19:11:09.594Z,16.93
2022-10-18T19:13:37.618Z,16.63
2022-10-18T19:16:23.775Z,16.30
2022-10-18T19:18:53.465Z,14.73
2022-10-18T19:21:23.009Z,15.70
2022-10-18T19:23:51.304Z,13.17
2022-10-18T19:26:27.588Z,16.63
2022-10-18T19:28:55.859Z,13.30
2022-10-18T19:31:24.224Z,18.07
2022-10-18T19:33:59.206Z,14.73
2022-10-18T19:36:29.641Z,16.57
2022-10-18T19:38:58.116Z,14.53
2022-10-18T19:43:59.045Z,15.17
2022-10-18T19:46:27.247Z,15.97
2022-10-18T19:48:55.158Z,14.90
2022-10-18T19:51:27.739Z,15.00
2022-10-18T19:53:58.322Z,13.50
2022-10-18T19:56:27.345Z,14.10
2022-10-18T19:58:55.901Z,12.60
2022-10-18T20:01:24.000Z,18.30
2022-10-18T20:03:52.216Z,18.70
2022-10-18T20:06:20.564Z,20.63
2022-10-18T20:08:49.121Z,30.67
2022-10-18T20:11:20.491Z,16.00
2022-10-18T20:13:48.477Z,17.53
2022-10-18T20:16:17.976Z,13.43
2022-10-18T20:18:45.878Z,13.90
2022-10-18T20:21:15.212Z,13.13
2022-10-18T20:23:43.972Z,14.03
2022-10-18T20:26:18.026Z,12.70
2022-10-18T20:28:55.910Z,13.23
2022-10-18T20:31:24.609Z,14.30
2022-10-18T20:33:55.401Z,12.27
2022-10-18T20:36:23.310Z,13.27
2022-10-18T20:38:51.225Z,13.40
2022-10-18T20:41:21.183Z,13.10
2022-10-18T20:43:53.810Z,12.23
2022-10-18T20:46:22.290Z,11.80
2022-10-18T20:48:50.783Z,11.03
2022-10-18T20:51:19.212Z,12.50
2022-10-18T20:53:47.535Z,15.60
2022-10-18T20:56:16.439Z,18.70
2022-10-18T20:58:45.627Z,15.10
2022-10-18T21:01:16.591Z,14.27
2022-10-18T21:03:46.054Z,15.10
2022-10-18T21:06:15.300Z,13.17
2022-10-18T21:08:44.291Z,12.80
2022-10-18T21:11:12.907Z,14.10
2022-10-18T21:13:41.797Z,28.10
2022-10-18T21:16:09.877Z,30.20
2022-10-18T21:18:40.428Z,30.50
2022-10-18T21:21:10.388Z,26.57
2022-10-18T21:23:38.348Z,26.80
2022-10-18T21:26:06.748Z,23.17
2022-10-18T21:28:35.037Z,20.50
2022-10-18T21:31:13.020Z,20.40
2022-10-18T21:33:42.707Z,20.77
2022-10-18T21:36:10.885Z,18.60
2022-10-18T21:38:39.302Z,22.90
2022-10-18T21:41:10.929Z,18.93
2022-10-18T21:43:40.679Z,15.73
2022-10-18T21:46:10.056Z,14.50
2022-10-18T21:48:39.004Z,15.57
2022-10-18T21:51:09.551Z,15.07
2022-10-18T21:53:38.056Z,13.93
2022-10-18T21:56:07.838Z,14.23
2022-10-18T21:58:36.145Z,17.00
2022-10-18T22:01:08.304Z,15.00
2022-10-18T22:03:36.265Z,14.97
2022-10-18T22:06:07.645Z,15.20
2022-10-18T22:08:37.181Z,15.53
2022-10-18T22:11:05.161Z,14.63
2022-10-18T22:13:33.072Z,15.37
2022-10-18T22:16:02.153Z,14.27
2022-10-18T22:18:30.082Z,14.03
2022-10-18T22:20:59.520Z,15.30
2022-10-18T22:23:32.883Z,13.90
2022-10-18T22:26:05.156Z,14.37
2022-10-18T22:28:33.099Z,14.40
2022-10-18T22:31:01.417Z,14.70
2022-10-18T22:33:29.432Z,15.93
2022-10-18T22:35:57.437Z,15.27
2022-10-18T22:38:25.517Z,16.43
2022-10-18T22:40:53.403Z,14.30
2022-10-18T22:43:22.677Z,8.17
2022-10-18T22:45:50.542Z,1.93
2022-10-18T22:48:18.441Z,1.10
2022-10-18T22:50:46.344Z,1.20
2022-10-18T22:53:14.246Z,1.20
2022-10-18T22:55:42.101Z,1.07
2022-10-18T22:58:10.010Z,1.50
2022-10-18T23:00:40.377Z,1.03
2022-10-18T23:03:08.298Z,1.20
2022-10-18T23:05:38.484Z,1.30
2022-10-18T23:08:06.571Z,1.60
2022-10-18T23:10:34.539Z,1.00
2022-10-18T23:13:02.461Z,1.60
2022-10-18T23:15:30.758Z,1.80
2022-10-18T23:18:00.473Z,1.60
2022-10-18T23:20:28.670Z,1.40
2022-10-18T23:22:56.638Z,1.43
2022-10-18T23:25:24.607Z,1.50
2022-10-18T23:27:52.505Z,1.87
2022-10-18T23:30:20.407Z,1.83
2022-10-18T23:32:48.268Z,1.80
2022-10-18T23:35:17.771Z,1.67
2022-10-18T23:37:45.629Z,1.83
2022-10-18T23:40:13.797Z,2.03
2022-10-18T23:42:41.668Z,2.50
2022-10-18T23:45:10.675Z,2.10
2022-10-18T23:47:39.657Z,1.87
2022-10-18T23:50:08.212Z,2.97
2022-10-18T23:52:37.425Z,2.27
2022-10-18T23:55:06.059Z,2.40
2022-10-18T23:57:34.248Z,2.57
